Time;durP1;ratioP1;P1;durP2;ratioP2;P2;SDS_P1;SDS_P2;PMS_P1;PMS_P2;Temp;Humidity;BMP_temperature;BMP_pressure;BME280_temperature;BME280_humidity;BME280_pressure;Samples;Min_cycle;Max_cycle;Signal;HPM_P1;HPM_P2
2022/02/23 00:01:41;;;;;;;9.48;5.20;;;;;;;2.53;84.90;97755.73;1773299;81;20890;-62
2022/02/23 00:04:07;;;;;;;9.40;5.40;;;;;;;2.49;84.89;97762.56;1773629;81;21386;-63
2022/02/23 00:06:34;;;;;;;9.58;5.55;;;;;;;2.45;84.95;97763.55;1773327;81;20843;-62
2022/02/23 00:09:01;;;;;;;8.70;4.80;;;;;;;2.43;85.09;97768.29;1773580;81;21104;-60
2022/02/23 00:11:28;;;;;;;8.05;4.85;;;;;;;2.45;85.00;97766.75;1773321;81;20839;-65
2022/02/23 00:13:54;;;;;;;7.95;5.20;;;;;;;2.49;85.10;97767.33;1773560;80;21421;-63
2022/02/23 00:16:21;;;;;;;8.05;5.15;;;;;;;2.52;84.96;97770.79;1773255;81;20930;-63
2022/02/23 00:18:48;;;;;;;8.40;5.22;;;;;;;2.50;84.91;97770.23;1773317;81;20892;-61
2022/02/23 00:21:15;;;;;;;6.70;5.25;;;;;;;2.46;84.92;97774.42;1773286;81;21112;-63
2022/02/23 00:23:42;;;;;;;9.08;5.42;;;;;;;2.43;85.11;97777.55;1773145;80;21469;-65
2022/02/23 00:26:09;;;;;;;8.85;5.12;;;;;;;2.36;85.13;97774.27;1773474;81;21020;-65
2022/02/23 00:28:36;;;;;;;9.38;5.72;;;;;;;2.32;85.24;97773.16;1773175;81;20867;-68
2022/02/23 00:31:03;;;;;;;9.05;5.10;;;;;;;2.33;85.51;97777.39;1773196;81;20855;-60
2022/02/23 00:33:30;;;;;;;7.62;4.70;;;;;;;2.31;85.63;97778.16;1773394;81;21185;-65
2022/02/23 00:36:01;;;;;;;7.75;5.12;;;;;;;2.32;85.63;97778.97;1773158;80;20942;-61
2022/02/23 00:38:27;;;;;;;8.38;5.40;;;;;;;2.31;85.74;97778.70;1773483;81;20934;-66
2022/02/23 00:40:54;;;;;;;6.78;5.10;;;;;;;2.30;85.66;97784.50;1773172;81;21414;-63
2022/02/23 00:43:21;;;;;;;8.38;5.40;;;;;;;2.32;85.64;97780.28;1773270;81;20930;-61
2022/02/23 00:45:47;;;;;;;6.72;5.08;;;;;;;2.31;85.67;97770.23;1773287;81;21078;-63
2022/02/23 00:48:14;;;;;;;10.72;4.62;;;;;;;2.32;85.63;97779.77;1773219;81;20835;-60
2022/02/23 00:50:40;;;;;;;8.58;5.12;;;;;;;2.35;85.64;97785.91;1773163;81;20938;-61
2022/02/23 00:53:07;;;;;;;11.20;5.70;;;;;;;2.36;85.58;97790.13;1773262;81;21482;-61
2022/02/23 00:55:34;;;;;;;8.70;5.25;;;;;;;2.40;85.56;97795.20;1773298;81;20878;-61
2022/02/23 00:58:00;;;;;;;7.75;5.20;;;;;;;2.43;85.44;97797.37;1773265;81;21517;-65
2022/02/23 01:00:27;;;;;;;8.05;5.22;;;;;;;2.43;85.28;97794.72;1773222;81;20882;-64
2022/02/23 01:02:54;;;;;;;8.35;5.58;;;;;;;2.39;85.21;97793.62;1773213;81;20910;-64
2022/02/23 01:05:22;;;;;;;12.13;5.85;;;;;;;2.41;85.27;97795.49;1773454;81;21481;-61
2022/02/23 01:07:50;;;;;;;10.18;5.58;;;;;;;2.43;85.18;97789.44;1773136;81;20950;-63
2022/02/23 01:10:17;;;;;;;11.05;6.22;;;;;;;2.46;84.84;97794.25;1773350;81;21165;-63
2022/02/23 01:12:44;;;;;;;9.45;5.70;;;;;;;2.47;84.79;97802.44;1773418;81;21393;-61
2022/02/23 01:15:11;;;;;;;9.25;5.58;;;;;;;2.52;84.58;97799.88;1773257;81;21049;-63
2022/02/23 01:17:39;;;;;;;10.28;6.35;;;;;;;2.53;84.37;97796.71;1773245;81;20899;-65
2022/02/23 01:20:07;;;;;;;9.78;6.10;;;;;;;2.50;84.19;97801.96;1773258;81;20847;-62
2022/02/23 01:22:35;;;;;;;11.38;6.35;;;;;;;2.49;84.02;97806.98;1773120;80;20942;-63
2022/02/23 01:25:04;;;;;;;9.85;6.20;;;;;;;2.49;83.84;97802.22;1773102;81;21493;-62
2022/02/23 01:27:31;;;;;;;10.18;6.33;;;;;;;2.47;83.74;97806.41;1773572;81;20961;-63
2022/02/23 01:29:58;;;;;;;10.18;5.87;;;;;;;2.45;83.75;97806.39;1773334;81;20967;-60
2022/02/23 01:32:25;;;;;;;9.03;6.22;;;;;;;2.44;83.77;97802.14;1773262;81;20918;-62
2022/02/23 01:34:51;;;;;;;11.05;6.47;;;;;;;2.45;83.78;97809.04;1773164;81;21189;-60
2022/02/23 01:37:18;;;;;;;12.00;6.28;;;;;;;2.43;83.79;97809.27;1773086;81;20962;-64
2022/02/23 01:39:46;;;;;;;12.33;6.08;;;;;;;2.43;83.77;97806.63;1773257;81;20883;-64
2022/02/23 01:42:14;;;;;;;8.43;6.10;;;;;;;2.42;83.86;97806.87;1773267;81;20886;-65
2022/02/23 01:44:41;;;;;;;8.08;5.78;;;;;;;2.42;83.86;97811.64;1773457;81;20989;-65
2022/02/23 01:47:08;;;;;;;9.68;6.62;;;;;;;2.39;83.91;97807.34;1773527;81;21869;-63
2022/02/23 01:49:34;;;;;;;14.60;7.03;;;;;;;2.35;84.00;97805.73;1773327;81;20839;-63
2022/02/23 01:52:01;;;;;;;11.95;6.87;;;;;;;2.31;84.02;97809.09;1773697;80;20890;-63
2022/02/23 01:54:28;;;;;;;9.05;6.67;;;;;;;2.27;84.07;97803.99;1773265;81;20871;-64
2022/02/23 01:56:55;;;;;;;11.15;6.58;;;;;;;2.21;84.14;97812.38;1773774;81;20863;-59
2022/02/23 01:59:21;;;;;;;10.63;6.15;;;;;;;2.18;84.24;97802.80;1773458;81;21179;-64
2022/02/23 02:01:48;;;;;;;10.70;6.67;;;;;;;2.16;84.27;97795.12;1773525;80;20874;-63
2022/02/23 02:04:15;;;;;;;11.22;7.12;;;;;;;2.11;84.25;97789.76;1773330;81;20936;-61
2022/02/23 02:06:42;;;;;;;11.50;7.37;;;;;;;2.05;84.32;97783.59;1773275;81;20978;-64
2022/02/23 02:09:10;;;;;;;12.82;8.05;;;;;;;1.99;84.30;97789.84;1773285;81;20954;-64
2022/02/23 02:11:37;;;;;;;12.98;8.20;;;;;;;1.92;84.43;97800.28;1773579;81;21058;-62
2022/02/23 02:14:04;;;;;;;11.50;6.90;;;;;;;1.86;84.49;97802.03;1773330;81;20879;-61
2022/02/23 02:16:31;;;;;;;11.48;7.05;;;;;;;1.82;84.60;97810.66;1773401;81;20938;-61
2022/02/23 02:18:58;;;;;;;11.80;7.20;;;;;;;1.79;84.81;97807.98;1773363;81;20946;-61
2022/02/23 02:21:55;;;;;;;11.38;7.65;;;;;;;1.81;84.90;97810.41;1773360;81;20894;-60
2022/02/23 02:24:24;;;;;;;11.70;8.23;;;;;;;1.82;85.00;97809.34;1773188;80;21116;-60
2022/02/23 02:26:51;;;;;;;13.43;8.03;;;;;;;1.84;85.08;97817.83;1773688;81;20878;-61
2022/02/23 02:29:18;;;;;;;15.72;8.73;;;;;;;1.86;85.03;97809.95;1773381;81;20843;-65
2022/02/23 02:31:46;;;;;;;10.93;8.55;;;;;;;1.85;84.93;97810.20;1773316;81;20931;-65
2022/02/23 02:34:13;;;;;;;11.15;7.78;;;;;;;1.83;84.97;97814.92;1773379;81;20930;-63
2022/02/23 02:36:40;;;;;;;13.32;7.55;;;;;;;1.79;85.08;97816.45;1773572;81;21880;-65
2022/02/23 02:39:07;;;;;;;12.95;7.90;;;;;;;1.80;85.16;97815.39;1773311;81;20922;-65
2022/02/23 02:41:35;;;;;;;14.28;8.23;;;;;;;1.80;85.12;97814.06;1773658;81;20938;-60
2022/02/23 02:44:02;;;;;;;11.38;8.28;;;;;;;1.84;85.12;97815.19;1773277;81;20887;-65
2022/02/23 02:46:29;;;;;;;15.23;8.60;;;;;;;1.85;85.01;97816.80;1773374;81;20938;-63
2022/02/23 02:48:56;;;;;;;13.38;8.78;;;;;;;1.83;85.07;97813.60;1773563;81;21410;-63
2022/02/23 02:51:22;;;;;;;15.18;8.53;;;;;;;1.78;84.82;97808.23;1773467;81;20887;-61
2022/02/23 02:53:48;;;;;;;9.80;7.80;;;;;;;1.74;84.87;97807.92;1773320;80;20878;-66
2022/02/23 02:56:15;;;;;;;13.15;8.20;;;;;;;1.76;84.84;97814.27;1773436;81;21414;-65
2022/02/23 02:58:42;;;;;;;14.58;8.30;;;;;;;1.76;84.97;97810.31;1773359;81;20894;-61
2022/02/23 03:01:09;;;;;;;13.85;8.48;;;;;;;1.78;84.96;97816.16;1773348;81;21127;-61
2022/02/23 03:03:36;;;;;;;11.95;7.78;;;;;;;1.81;85.00;97811.72;1773149;81;20883;-61
2022/02/23 03:06:03;;;;;;;12.10;8.43;;;;;;;1.81;84.98;97805.93;1773456;81;21381;-64
2022/02/23 03:08:30;;;;;;;13.62;8.30;;;;;;;1.78;85.07;97811.67;1773318;81;20969;-65
2022/02/23 03:10:57;;;;;;;11.40;8.68;;;;;;;1.78;85.24;97804.27;1773370;81;20922;-63
2022/02/23 03:13:23;;;;;;;12.40;8.28;;;;;;;1.82;85.16;97804.06;1773265;81;21103;-65
2022/02/23 03:15:50;;;;;;;10.18;7.28;;;;;;;1.85;85.12;97804.92;1773228;81;20965;-65
2022/02/23 03:18:17;;;;;;;11.70;7.72;;;;;;;1.85;85.04;97808.88;1773224;81;20875;-64
2022/02/23 03:20:44;;;;;;;12.40;8.08;;;;;;;1.81;85.11;97808.57;1773301;81;20939;-61
2022/02/23 03:23:11;;;;;;;14.63;8.25;;;;;;;1.81;84.90;97813.05;1761256;80;20934;-65
2022/02/23 03:25:38;;;;;;;14.15;7.97;;;;;;;1.80;84.88;97814.06;1732474;82;21131;-61
2022/02/23 03:28:04;;;;;;;13.50;7.42;;;;;;;1.80;84.96;97816.70;1732500;82;20876;-61
2022/02/23 03:30:31;;;;;;;11.80;6.58;;;;;;;1.83;85.25;97817.05;1732480;82;20998;-61
2022/02/23 03:32:58;;;;;;;12.65;6.90;;;;;;;1.85;85.31;97818.12;1732441;82;20888;-60
2022/02/23 03:35:27;;;;;;;15.98;6.12;;;;;;;1.86;85.67;97818.41;1732474;82;20919;-61
2022/02/23 03:37:55;;;;;;;12.50;7.08;;;;;;;1.91;85.83;97823.76;1732425;82;21129;-65
2022/02/23 03:40:22;;;;;;;15.70;6.62;;;;;;;1.92;85.88;97825.38;1732049;82;20947;-65
2022/02/23 03:42:49;;;;;;;10.45;6.28;;;;;;;1.91;86.09;97823.76;1732437;82;21553;-60
2022/02/23 03:45:16;;;;;;;10.55;6.20;;;;;;;1.92;86.08;97819.58;1732455;82;20971;-66
2022/02/23 03:47:44;;;;;;;10.68;6.20;;;;;;;1.93;86.19;97814.55;1732492;82;20935;-65
2022/02/23 03:50:10;;;;;;;16.82;6.40;;;;;;;1.97;86.24;97826.27;1732448;82;21117;-65
2022/02/23 03:52:38;;;;;;;10.85;6.30;;;;;;;2.00;86.24;97812.56;1732471;82;20961;-65
2022/02/23 03:55:07;;;;;;;12.07;5.67;;;;;;;2.03;86.12;97808.64;1732543;82;20956;-65
2022/02/23 03:57:34;;;;;;;14.07;5.70;;;;;;;2.04;86.15;97806.30;1732796;82;21510;-66
2022/02/23 04:00:00;;;;;;;11.05;5.85;;;;;;;2.08;86.06;97798.16;1732478;82;20947;-65
2022/02/23 04:02:27;;;;;;;11.55;6.25;;;;;;;2.09;86.03;97802.41;1732321;82;21034;-63
2022/02/23 04:04:54;;;;;;;13.03;6.83;;;;;;;2.10;85.90;97801.36;1732377;82;21403;-60
2022/02/23 04:07:20;;;;;;;13.10;5.85;;;;;;;2.07;85.80;97805.27;1732619;81;20959;-61
2022/02/23 04:09:48;;;;;;;11.20;5.65;;;;;;;2.01;85.72;97802.80;1732506;82;20883;-61
2022/02/23 04:12:16;;;;;;;16.82;5.67;;;;;;;1.97;85.71;97799.85;1732363;82;20895;-64
2022/02/23 04:14:44;;;;;;;13.83;6.10;;;;;;;1.94;85.75;97802.16;1732437;82;20930;-61
2022/02/23 04:17:10;;;;;;;10.95;5.67;;;;;;;1.91;85.67;97802.62;1732249;82;20923;-63
2022/02/23 04:19:37;;;;;;;13.35;6.60;;;;;;;1.86;85.73;97801.25;1732643;82;20919;-66
2022/02/23 04:22:06;;;;;;;14.40;7.20;;;;;;;1.81;85.77;97797.20;1732616;82;21415;-61
2022/02/23 04:24:33;;;;;;;12.63;7.30;;;;;;;1.77;85.83;97797.38;1732372;80;21070;-66
2022/02/23 04:27:00;;;;;;;13.55;6.28;;;;;;;1.76;85.90;97795.27;1732447;82;21124;-65
2022/02/23 04:29:28;;;;;;;13.35;6.35;;;;;;;1.78;85.88;97801.11;1732265;82;20883;-61
2022/02/23 04:31:54;;;;;;;13.13;6.92;;;;;;;1.77;85.89;97796.86;1732503;82;20891;-60
2022/02/23 04:34:21;;;;;;;15.28;7.85;;;;;;;1.78;85.93;97800.31;1732416;82;21478;-60
2022/02/23 04:36:48;;;;;;;12.82;7.80;;;;;;;1.78;85.96;97797.67;1732441;82;20999;-65
2022/02/23 04:39:15;;;;;;;16.57;8.38;;;;;;;1.80;85.96;97800.86;1732659;82;21106;-65
2022/02/23 04:41:48;;;;;;;13.30;7.28;;;;;;;1.81;85.95;97805.13;1732239;82;20876;-65
2022/02/23 04:44:14;;;;;;;16.02;7.60;;;;;;;1.79;85.89;97800.06;1732556;82;20883;-61
2022/02/23 04:46:41;;;;;;;11.73;7.33;;;;;;;1.78;85.93;97804.27;1732335;82;20935;-65
2022/02/23 04:49:07;;;;;;;15.93;8.08;;;;;;;1.77;86.00;97801.33;1732782;82;20880;-63
2022/02/23 04:51:34;;;;;;;19.65;11.45;;;;;;;1.80;86.10;97806.14;1732413;82;21156;-61
2022/02/23 04:54:01;;;;;;;22.45;13.68;;;;;;;1.85;86.15;97800.95;1732224;82;20927;-66
2022/02/23 04:56:27;;;;;;;16.70;10.50;;;;;;;1.88;86.06;97800.48;1732499;82;21323;-66
2022/02/23 04:58:57;;;;;;;18.37;11.85;;;;;;;1.84;86.00;97804.11;1732283;82;20899;-60
2022/02/23 05:01:24;;;;;;;15.90;10.53;;;;;;;1.80;86.04;97806.14;1732582;82;20887;-63
2022/02/23 05:03:50;;;;;;;23.83;13.32;;;;;;;1.76;86.10;97807.67;1732374;82;21723;-65
2022/02/23 05:06:17;;;;;;;16.45;10.68;;;;;;;1.71;86.16;97818.14;1732339;82;20863;-66
2022/02/23 05:08:44;;;;;;;18.52;11.85;;;;;;;1.65;86.26;97811.96;1732663;82;20927;-61
2022/02/23 05:11:11;;;;;;;29.50;18.70;;;;;;;1.61;86.48;97817.95;1732254;82;20970;-63
2022/02/23 05:13:37;;;;;;;27.85;18.05;;;;;;;1.59;86.65;97818.71;1732500;82;21438;-64
2022/02/23 05:16:04;;;;;;;18.50;10.30;;;;;;;1.60;86.77;97822.97;1732282;82;21083;-60
2022/02/23 05:18:33;;;;;;;17.10;11.55;;;;;;;1.63;86.82;97828.56;1732300;82;20959;-61
2022/02/23 05:21:00;;;;;;;16.62;10.58;;;;;;;1.64;86.84;97830.69;1732585;82;21482;-64
2022/02/23 05:23:27;;;;;;;18.52;12.28;;;;;;;1.66;86.83;97831.25;1732289;80;21021;-61
2022/02/23 05:25:56;;;;;;;24.50;14.98;;;;;;;1.68;86.84;97829.17;1732305;82;20895;-61
2022/02/23 05:28:23;;;;;;;19.82;11.73;;;;;;;1.69;86.86;97837.39;1732646;82;21104;-61
2022/02/23 05:30:50;;;;;;;26.02;17.32;;;;;;;1.69;86.79;97834.23;1732317;82;20960;-65
2022/02/23 05:33:18;;;;;;;30.75;19.45;;;;;;;1.67;86.88;97836.83;1732265;82;20926;-61
2022/02/23 05:35:45;;;;;;;48.30;36.23;;;;;;;1.71;86.98;97836.63;1732259;82;21137;-59
2022/02/23 05:38:11;;;;;;;31.48;18.35;;;;;;;1.77;86.85;97847.55;1732521;82;21007;-66
2022/02/23 05:40:38;;;;;;;34.10;23.98;;;;;;;1.80;86.83;97847.08;1732573;82;21081;-63
2022/02/23 05:43:05;;;;;;;26.27;16.73;;;;;;;1.84;86.76;97850.84;1732261;82;20895;-64
2022/02/23 05:45:32;;;;;;;27.17;17.98;;;;;;;1.83;86.51;97848.74;1732712;82;20915;-64
2022/02/23 05:47:58;;;;;;;23.27;13.70;;;;;;;1.79;86.56;97846.27;1732351;82;21435;-64
2022/02/23 05:50:25;;;;;;;26.37;14.15;;;;;;;1.79;86.61;97848.14;1732671;82;20895;-65
2022/02/23 05:52:52;;;;;;;24.92;13.13;;;;;;;1.81;86.62;97850.83;1732551;82;21117;-66
2022/02/23 05:55:19;;;;;;;23.75;14.98;;;;;;;1.83;86.56;97847.94;1732303;82;21447;-63
2022/02/23 05:57:45;;;;;;;34.20;21.10;;;;;;;1.84;86.49;97842.41;1732373;82;20844;-65
2022/02/23 06:00:14;;;;;;;31.42;17.50;;;;;;;1.82;86.42;97844.48;1732547;82;20911;-65
2022/02/23 06:02:41;;;;;;;38.33;23.95;;;;;;;1.78;86.44;97846.01;1732577;82;21482;-70
2022/02/23 06:05:08;;;;;;;51.13;28.62;;;;;;;1.81;86.55;97852.66;1732694;82;21275;-61
2022/02/23 06:07:36;;;;;;;28.12;18.20;;;;;;;1.87;86.53;97848.54;1732246;82;20953;-71
2022/02/23 06:10:05;;;;;;;29.23;16.05;;;;;;;1.95;86.44;97850.00;1732487;82;21401;-66
2022/02/23 06:12:32;;;;;;;28.17;17.65;;;;;;;1.98;86.38;97846.34;1732273;82;20903;-62
2022/02/23 06:14:59;;;;;;;27.17;16.07;;;;;;;2.00;86.25;97847.45;1713575;82;20946;-65
2022/02/23 06:17:28;;;;;;;25.97;15.10;;;;;;;2.00;86.17;97850.09;1732440;82;21874;-62
2022/02/23 06:19:55;;;;;;;30.85;17.17;;;;;;;1.99;86.16;97847.16;1727637;82;20971;-62
2022/02/23 06:22:21;;;;;;;32.63;18.17;;;;;;;2.00;86.10;97850.09;1704506;83;21557;-64
2022/02/23 06:24:48;;;;;;;25.08;15.03;;;;;;;2.02;85.92;97857.25;1756155;80;20864;-64
2022/02/23 06:27:17;;;;;;;24.57;13.22;;;;;;;2.00;85.83;97848.77;1764050;81;21010;-62
2022/02/23 06:29:44;;;;;;;27.67;14.47;;;;;;;1.98;85.79;97850.30;1764673;81;21126;-59
2022/02/23 06:32:11;;;;;;;68.75;41.00;;;;;;;1.98;85.80;97858.74;1749663;82;22088;-63
2022/02/23 06:34:38;;;;;;;40.43;26.40;;;;;;;1.98;85.74;97863.52;1783310;80;20860;-65
2022/02/23 06:37:06;;;;;;;115.45;62.85;;;;;;;2.00;85.60;97860.66;1764544;81;20920;-60
2022/02/23 06:39:40;;;;;;;60.63;35.25;;;;;;;2.00;85.51;97863.30;1764528;81;20936;-65
2022/02/23 06:42:07;;;;;;;39.53;25.35;;;;;;;1.98;85.46;97864.03;1750448;81;21189;-56
2022/02/23 06:44:35;;;;;;;90.32;49.53;;;;;;;2.03;85.36;97865.44;1761593;80;21573;-62
2022/02/23 06:47:03;;;;;;;158.10;106.87;;;;;;;2.15;85.29;97875.42;1751867;82;20950;-62
2022/02/23 06:49:35;;;;;;;37.90;20.88;;;;;;;2.24;85.05;97875.85;1757762;80;20990;-68
2022/02/23 06:52:09;;;;;;;45.12;27.40;;;;;;;2.33;84.74;97871.77;1758309;80;20942;-60
2022/02/23 06:54:53;;;;;;;29.55;19.50;;;;;;;2.44;84.54;97876.97;1763996;80;21695;-67
2022/02/23 06:57:43;;;;;;;27.60;15.83;;;;;;;2.57;84.33;97881.11;1748801;80;21066;-62
2022/02/23 07:00:24;;;;;;;26.12;12.85;;;;;;;2.62;83.85;97880.67;1760057;81;20977;-60
2022/02/23 07:03:02;;;;;;;28.27;14.70;;;;;;;2.70;83.58;97878.15;1765537;80;21135;-59
2022/02/23 07:05:44;;;;;;;43.87;23.15;;;;;;;2.76;83.23;97876.66;1743319;81;21557;-63
2022/02/23 07:08:25;;;;;;;67.32;22.27;;;;;;;2.87;82.91;97878.94;1759989;80;21014;-61
2022/02/23 07:10:56;;;;;;;65.83;26.52;;;;;;;2.98;82.43;97885.15;1737709;82;21080;-66
2022/02/23 07:13:24;;;;;;;99.60;39.05;;;;;;;3.05;82.02;97880.48;1752426;82;20982;-62
2022/02/23 07:15:51;;;;;;;93.03;37.25;;;;;;;3.13;81.75;97877.42;1751854;82;21002;-67
2022/02/23 07:18:18;;;;;;;90.38;38.48;;;;;;;3.19;81.07;97872.46;1763594;80;20888;-67
2022/02/23 07:20:45;;;;;;;39.88;20.20;;;;;;;3.16;80.87;97872.42;1754106;80;22244;-64
2022/02/23 07:23:20;;;;;;;20.68;11.57;;;;;;;3.14;80.35;97880.33;1749460;80;20982;-66
2022/02/23 07:25:54;;;;;;;50.67;20.05;;;;;;;3.09;80.06;97873.65;1761334;81;21026;-66
2022/02/23 07:28:24;;;;;;;92.27;34.18;;;;;;;3.13;80.13;97877.42;1762032;81;21474;-63
2022/02/23 07:30:53;;;;;;;79.97;32.00;;;;;;;3.20;79.89;97878.05;1745728;81;35806;-65
2022/02/23 07:33:29;;;;;;;60.35;25.20;;;;;;;3.28;79.60;97872.30;1761496;81;22200;-64
2022/02/23 07:35:56;;;;;;;31.00;12.98;;;;;;;3.34;79.37;97865.50;1729976;82;21431;-60
2022/02/23 07:38:23;;;;;;;36.58;16.85;;;;;;;3.41;78.87;97872.73;1741111;81;20958;-65
2022/02/23 07:40:56;;;;;;;28.27;14.85;;;;;;;3.43;78.48;97875.15;1745521;80;21479;-63
2022/02/23 07:43:29;;;;;;;26.93;13.08;;;;;;;3.46;78.43;97873.34;1756923;81;21484;-66
2022/02/23 07:45:58;;;;;;;35.63;18.48;;;;;;;3.52;78.18;97869.69;1755951;80;21130;-71
2022/02/23 07:48:25;;;;;;;41.35;21.42;;;;;;;3.61;77.92;97872.17;1744719;80;20860;-67
2022/02/23 07:50:52;;;;;;;30.17;14.15;;;;;;;3.71;77.58;97876.27;1760750;80;21406;-59
2022/02/23 07:53:27;;;;;;;23.52;11.68;;;;;;;3.81;77.45;97865.78;1739673;81;21521;-65
2022/02/23 07:55:58;;;;;;;21.27;11.83;;;;;;;3.93;76.89;97867.73;1776995;80;21536;-61
2022/02/23 07:58:29;;;;;;;24.87;12.60;;;;;;;4.10;76.25;97867.63;1754639;81;21691;-63
2022/02/23 08:01:00;;;;;;;21.37;9.38;;;;;;;4.25;75.59;97861.66;1750824;81;21596;-59
2022/02/23 08:03:28;;;;;;;14.98;7.28;;;;;;;4.39;74.58;97858.86;1747080;81;20888;-65
2022/02/23 08:05:56;;;;;;;16.73;7.55;;;;;;;4.56;74.01;97858.20;1748648;81;21404;-62
2022/02/23 08:08:29;;;;;;;16.95;7.40;;;;;;;4.70;73.21;97858.03;1745992;80;21031;-68
2022/02/23 08:10:59;;;;;;;14.38;6.72;;;;;;;4.82;72.26;97859.97;1752171;80;21335;-63
2022/02/23 08:13:26;;;;;;;15.10;6.65;;;;;;;4.91;70.98;97852.31;1761677;80;20873;-66
2022/02/23 08:21:25;;;;;;;14.58;6.58;;;;;;;5.27;69.05;97850.92;1756295;80;21062;-65
2022/02/23 08:23:55;;;;;;;11.57;4.60;;;;;;;5.31;68.70;97848.01;1747280;81;21058;-59
2022/02/23 08:26:27;;;;;;;13.77;4.73;;;;;;;5.36;67.40;97853.34;1735740;80;20900;-68
2022/02/23 08:28:54;;;;;;;10.50;4.83;;;;;;;5.36;66.92;97857.33;1751612;81;21027;-64
2022/02/23 08:31:22;;;;;;;13.05;4.42;;;;;;;5.32;66.12;97861.53;1747501;80;20972;-66
2022/02/23 08:33:50;;;;;;;10.05;4.10;;;;;;;5.26;66.30;97853.30;1721629;82;20939;-61
2022/02/23 08:36:17;;;;;;;15.55;5.50;;;;;;;5.23;65.92;97848.48;1735286;80;21875;-66
2022/02/23 08:38:45;;;;;;;9.75;4.67;;;;;;;5.12;65.38;97856.14;1740694;80;20992;-67
2022/02/23 08:41:12;;;;;;;12.05;5.40;;;;;;;5.02;66.09;97857.41;1754049;81;20924;-68
2022/02/23 08:43:39;;;;;;;12.03;5.55;;;;;;;4.95;66.21;97847.55;1758272;80;20979;-66
2022/02/23 08:46:09;;;;;;;14.28;6.22;;;;;;;4.93;66.66;97843.03;1739965;81;21542;-63
2022/02/23 08:48:36;;;;;;;14.43;6.47;;;;;;;4.94;66.56;97848.62;1730158;83;21126;-67
2022/02/23 08:51:04;;;;;;;17.17;4.72;;;;;;;4.93;66.86;97849.67;1732016;81;21057;-62
2022/02/23 08:53:35;;;;;;;12.70;4.45;;;;;;;4.95;65.30;97862.16;1758086;80;21101;-62
2022/02/23 08:56:03;;;;;;;12.75;5.65;;;;;;;4.92;65.12;97853.41;1748187;81;21025;-64
2022/02/23 08:58:31;;;;;;;15.08;4.62;;;;;;;4.95;65.12;97851.54;1731030;82;20978;-64
2022/02/23 09:00:58;;;;;;;11.22;4.40;;;;;;;4.99;65.05;97847.33;1742648;80;22295;-64
2022/02/23 09:03:26;;;;;;;14.40;4.83;;;;;;;5.02;65.15;97854.76;1754575;80;21027;-64
2022/02/23 09:05:53;;;;;;;14.75;5.87;;;;;;;5.09;65.17;97854.00;1760502;80;21514;-65
2022/02/23 09:08:24;;;;;;;11.85;5.03;;;;;;;5.21;65.12;97845.30;1758773;81;21059;-61
2022/02/23 09:10:51;;;;;;;11.55;4.40;;;;;;;5.32;64.96;97844.27;1761327;80;21030;-65
2022/02/23 09:13:18;;;;;;;14.55;5.25;;;;;;;5.42;64.34;97836.35;1764975;80;21115;-61
2022/02/23 09:15:46;;;;;;;11.18;4.12;;;;;;;5.52;64.71;97847.02;1769458;80;20876;-61
2022/02/23 09:18:17;;;;;;;15.35;3.98;;;;;;;5.62;63.50;97832.16;1756488;80;20978;-67
2022/02/23 09:20:44;;;;;;;13.83;4.00;;;;;;;5.65;62.57;97836.44;1760442;80;20970;-63
2022/02/23 09:23:12;;;;;;;10.68;3.80;;;;;;;5.64;62.61;97831.36;1754749;80;21411;-63
2022/02/23 09:25:41;;;;;;;10.30;4.15;;;;;;;5.62;62.04;97830.83;1757704;80;21343;-65
2022/02/23 09:28:09;;;;;;;12.80;4.22;;;;;;;5.60;61.80;97831.63;1755024;80;21010;-65
2022/02/23 09:30:36;;;;;;;14.10;4.62;;;;;;;5.60;62.19;97832.95;1756248;80;21452;-63
2022/02/23 09:33:07;;;;;;;17.77;5.37;;;;;;;5.57;62.67;97825.50;1749757;81;21003;-61
2022/02/23 09:35:45;;;;;;;17.20;6.22;;;;;;;5.56;62.57;97825.25;1761081;80;21189;-65
2022/02/23 09:38:20;;;;;;;21.45;7.87;;;;;;;5.52;62.57;97823.11;1764207;80;20983;-66
2022/02/23 09:40:48;;;;;;;16.73;7.55;;;;;;;5.42;63.02;97827.05;1764313;80;20900;-63
2022/02/23 09:43:20;;;;;;;18.12;7.53;;;;;;;5.40;63.33;97835.02;1756232;81;21039;-68
2022/02/23 09:45:53;;;;;;;15.08;6.35;;;;;;;5.42;63.64;97829.71;1758929;81;21062;-65
2022/02/23 09:48:25;;;;;;;15.53;5.75;;;;;;;5.45;63.59;97830.52;1749055;81;21046;-62
2022/02/23 09:50:54;;;;;;;14.07;5.72;;;;;;;5.47;63.28;97822.28;1758739;81;21677;-63
2022/02/23 09:53:29;;;;;;;14.68;5.35;;;;;;;5.49;62.88;97825.47;1755927;81;21086;-61
2022/02/23 09:56:06;;;;;;;15.53;5.70;;;;;;;5.49;62.54;97825.47;1733778;81;21632;-63
2022/02/23 09:58:43;;;;;;;19.27;6.95;;;;;;;5.43;62.35;97822.55;1756224;80;21117;-59
2022/02/23 10:01:11;;;;;;;16.48;6.20;;;;;;;5.39;62.69;97831.55;1773770;80;21098;-65
2022/02/23 10:03:50;;;;;;;20.30;6.90;;;;;;;5.42;62.45;97824.40;1718918;81;21718;-62
2022/02/23 10:06:32;;;;;;;19.20;9.53;;;;;;;5.44;62.63;97823.60;1777212;80;21025;-68
2022/02/23 10:09:05;;;;;;;21.30;8.63;;;;;;;5.48;62.01;97824.70;1779017;79;20987;-68
2022/02/23 10:11:44;;;;;;;16.25;7.70;;;;;;;5.49;61.66;97834.77;1756166;81;21090;-64
2022/02/23 10:14:21;;;;;;;21.17;6.40;;;;;;;5.47;61.73;97825.75;1757887;81;21576;-64
2022/02/23 10:16:48;;;;;;;13.95;5.92;;;;;;;5.46;61.55;97823.36;1786222;80;21569;-64
2022/02/23 10:19:21;;;;;;;17.37;5.55;;;;;;;5.43;61.75;97827.34;1791672;80;21013;-63
2022/02/23 10:22:02;;;;;;;14.15;6.05;;;;;;;5.46;61.86;97824.69;1759740;79;21037;-65
2022/02/23 10:24:39;;;;;;;15.80;6.08;;;;;;;5.52;61.78;97824.44;1760941;80;21098;-66
2022/02/23 10:27:13;;;;;;;10.63;4.00;;;;;;;5.53;61.39;97816.72;1764625;81;21125;-68
2022/02/23 10:30:00;;;;;;;13.53;4.58;;;;;;;5.52;60.47;97817.80;1767015;81;21061;-63
2022/02/23 10:32:31;;;;;;;10.23;3.40;;;;;;;5.52;60.48;97832.41;1711653;83;20912;-67
2022/02/23 10:35:01;;;;;;;10.72;3.40;;;;;;;5.47;57.63;97836.37;1711894;83;21392;-66
2022/02/23 10:37:31;;;;;;;9.23;3.30;;;;;;;5.39;57.95;97833.44;1660510;85;20972;-65
2022/02/23 10:40:06;;;;;;;13.03;3.35;;;;;;;5.36;58.08;97839.26;1685044;83;21063;-67
2022/02/23 10:42:37;;;;;;;10.78;3.33;;;;;;;5.35;57.96;97839.78;1685044;83;21111;-67
2022/02/23 10:45:07;;;;;;;9.68;3.58;;;;;;;5.34;58.20;97839.53;1695154;83;20968;-66
2022/02/23 10:47:37;;;;;;;11.45;2.98;;;;;;;5.32;58.62;97838.96;1687401;83;21043;-59
2022/02/23 10:50:13;;;;;;;9.13;2.58;;;;;;;5.29;59.18;97839.50;1682975;84;21480;-70
2022/02/23 10:52:43;;;;;;;8.35;2.70;;;;;;;5.18;59.69;97847.14;1686832;84;20913;-64
2022/02/23 10:55:28;;;;;;;12.75;2.83;;;;;;;5.07;60.27;97838.86;1709714;83;21741;-65
2022/02/23 10:57:58;;;;;;;;;;;;;;;5.01;61.13;97834.59;1713983;84;21391;-63
2022/02/23 11:00:44;;;;;;;7.65;2.77;;;;;;;4.97;61.74;97836.15;1711576;83;20103;-63
2022/02/23 11:03:12;;;;;;;8.68;2.72;;;;;;;4.92;61.96;97825.53;1710128;83;20968;-64
2022/02/23 11:05:51;;;;;;;10.40;3.35;;;;;;;4.90;62.12;97825.52;1682807;84;20972;-65
2022/02/23 11:08:24;;;;;;;9.18;3.35;;;;;;;4.91;62.76;97823.92;1667165;85;20936;-62
2022/02/23 11:10:56;;;;;;;8.40;3.35;;;;;;;4.90;63.24;97842.77;1683023;85;20996;-62
2022/02/23 11:13:24;;;;;;;6.45;2.95;;;;;;;4.87;63.85;97822.84;1682548;83;21022;-63
2022/02/23 11:15:52;;;;;;;9.68;3.47;;;;;;;4.85;64.37;97817.00;1705499;83;21564;-66
2022/02/23 11:18:23;;;;;;;10.65;3.55;;;;;;;4.89;64.29;97814.09;1693467;84;20924;-67
2022/02/23 11:20:51;;;;;;;11.95;5.30;;;;;;;4.92;64.94;97819.42;1711631;83;21090;-68
2022/02/23 11:23:24;;;;;;;9.43;3.62;;;;;;;4.89;65.04;97828.69;1710748;84;21064;-63
2022/02/23 11:25:53;;;;;;;12.78;4.12;;;;;;;4.89;65.46;97828.69;1686677;83;21417;-60
2022/02/23 11:28:29;;;;;;;8.63;3.30;;;;;;;4.83;66.12;97821.74;1654937;84;20917;-68
2022/02/23 11:31:06;;;;;;;5.78;3.20;;;;;;;4.73;66.43;97825.69;1711658;82;20965;-66
2022/02/23 11:33:53;;;;;;;8.83;3.40;;;;;;;4.66;67.35;97818.48;1708170;84;21131;-62
2022/02/23 11:36:32;;;;;;;8.33;3.30;;;;;;;4.60;67.89;97822.94;1711596;83;21002;-64
2022/02/23 11:39:00;;;;;;;7.53;3.10;;;;;;;4.60;68.41;97820.29;1703419;84;21390;-69
2022/02/23 11:41:34;;;;;;;10.93;3.92;;;;;;;4.56;68.87;97821.06;1683081;83;20962;-63
2022/02/23 11:44:12;;;;;;;10.25;3.90;;;;;;;4.53;69.53;97820.23;1683848;85;20927;-66
2022/02/23 11:47:21;;;;;;;8.68;3.55;;;;;;;4.50;70.38;97827.40;1682748;84;21138;-64
2022/02/23 11:55:49;;;;;;;7.35;3.45;;;;;;;4.18;73.19;97835.88;1682715;85;20939;-67